sensor_id;sensor_type;location;lat;lon;timestamp;temperature;humidity
29571;DHT22;16814;52.118;11.436;2023-04-21T00:01:20;7.10;99.90
29571;DHT22;16814;52.118;11.436;2023-04-21T00:03:48;7.00;99.90
29571;DHT22;16814;52.118;11.436;2023-04-21T00:06:16;7.10;99.90
29571;DHT22;16814;52.118;11.436;2023-04-21T00:08:50;7.00;99.90
29571;DHT22;16814;52.118;11.436;2023-04-21T00:11:17;7.00;99.90
29571;DHT22;16814;52.118;11.436;2023-04-21T00:13:44;7.10;99.90
29571;DHT22;16814;52.118;11.436;2023-04-21T00:16:13;7.10;99.90
29571;DHT22;16814;52.118;11.436;2023-04-21T00:18:40;7.10;99.90
29571;DHT22;16814;52.118;11.436;2023-04-21T00:21:06;7.20;99.90
29571;DHT22;16814;52.118;11.436;2023-04-21T00:23:32;7.20;99.90
29571;DHT22;16814;52.118;11.436;2023-04-21T00:26:00;7.20;99.90
29571;DHT22;16814;52.118;11.436;2023-04-21T00:28:27;7.20;99.90
29571;DHT22;16814;52.118;11.436;2023-04-21T00:30:55;7.20;99.90
29571;DHT22;16814;52.118;11.436;2023-04-21T00:33:22;7.30;99.90
29571;DHT22;16814;52.118;11.436;2023-04-21T00:35:49;7.20;99.90
29571;DHT22;16814;52.118;11.436;2023-04-21T00:38:17;7.20;99.90
29571;DHT22;16814;52.118;11.436;2023-04-21T00:40:44;7.10;99.90
29571;DHT22;16814;52.118;11.436;2023-04-21T00:43:11;7.00;99.90
29571;DHT22;16814;52.118;11.436;2023-04-21T00:45:37;7.10;99.90
29571;DHT22;16814;52.118;11.436;2023-04-21T00:48:04;7.00;99.90
29571;DHT22;16814;52.118;11.436;2023-04-21T00:50:33;7.00;99.90
29571;DHT22;16814;52.118;11.436;2023-04-21T00:52:59;6.90;99.90
29571;DHT22;16814;52.118;11.436;2023-04-21T00:55:27;6.90;99.90
29571;DHT22;16814;52.118;11.436;2023-04-21T00:57:55;7.00;99.90
29571;DHT22;16814;52.118;11.436;2023-04-21T01:00:25;7.00;99.90
29571;DHT22;16814;52.118;11.436;2023-04-21T01:02:51;7.10;99.90
29571;DHT22;16814;52.118;11.436;2023-04-21T01:05:18;7.10;99.90
29571;DHT22;16814;52.118;11.436;2023-04-21T01:07:48;7.00;99.90
29571;DHT22;16814;52.118;11.436;2023-04-21T01:10:15;6.90;99.90
29571;DHT22;16814;52.118;11.436;2023-04-21T01:12:48;6.90;99.90
29571;DHT22;16814;52.118;11.436;2023-04-21T01:15:15;7.00;99.90
29571;DHT22;16814;52.118;11.436;2023-04-21T01:17:43;7.00;99.90
29571;DHT22;16814;52.118;11.436;2023-04-21T01:20:13;7.10;99.90
29571;DHT22;16814;52.118;11.436;2023-04-21T01:22:41;7.20;99.90
29571;DHT22;16814;52.118;11.436;2023-04-21T01:25:11;7.20;99.90
29571;DHT22;16814;52.118;11.436;2023-04-21T01:27:38;7.10;99.90
29571;DHT22;16814;52.118;11.436;2023-04-21T01:30:07;7.10;99.90
29571;DHT22;16814;52.118;11.436;2023-04-21T01:32:35;7.00;99.90
29571;DHT22;16814;52.118;11.436;2023-04-21T01:35:03;7.00;99.90
29571;DHT22;16814;52.118;11.436;2023-04-21T01:37:31;7.00;99.90
29571;DHT22;16814;52.118;11.436;2023-04-21T01:40:02;7.00;99.90
29571;DHT22;16814;52.118;11.436;2023-04-21T01:42:36;6.90;99.90
29571;DHT22;16814;52.118;11.436;2023-04-21T01:45:04;6.90;99.90
29571;DHT22;16814;52.118;11.436;2023-04-21T01:47:33;7.00;99.90
29571;DHT22;16814;52.118;11.436;2023-04-21T01:50:00;7.00;99.90
29571;DHT22;16814;52.118;11.436;2023-04-21T01:52:26;7.00;99.90
29571;DHT22;16814;52.118;11.436;2023-04-21T01:54:53;7.10;99.90
29571;DHT22;16814;52.118;11.436;2023-04-21T01:57:20;7.00;99.90
29571;DHT22;16814;52.118;11.436;2023-04-21T01:59:48;7.00;99.90
29571;DHT22;16814;52.118;11.436;2023-04-21T02:02:14;6.90;99.90
29571;DHT22;16814;52.118;11.436;2023-04-21T02:04:41;6.90;99.90
29571;DHT22;16814;52.118;11.436;2023-04-21T02:07:07;7.00;99.90
29571;DHT22;16814;52.118;11.436;2023-04-21T02:09:34;7.10;99.90
29571;DHT22;16814;52.118;11.436;2023-04-21T02:12:02;7.10;99.90
29571;DHT22;16814;52.118;11.436;2023-04-21T02:14:29;7.00;99.90
29571;DHT22;16814;52.118;11.436;2023-04-21T02:16:56;7.00;99.90
29571;DHT22;16814;52.118;11.436;2023-04-21T02:19:24;7.00;99.90
29571;DHT22;16814;52.118;11.436;2023-04-21T02:21:51;7.00;99.90
29571;DHT22;16814;52.118;11.436;2023-04-21T02:24:18;7.00;99.90
29571;DHT22;16814;52.118;11.436;2023-04-21T02:26:45;7.00;99.90
29571;DHT22;16814;52.118;11.436;2023-04-21T02:29:11;7.00;99.90
29571;DHT22;16814;52.118;11.436;2023-04-21T02:31:38;6.90;99.90
29571;DHT22;16814;52.118;11.436;2023-04-21T02:34:06;7.00;99.90
29571;DHT22;16814;52.118;11.436;2023-04-21T02:36:32;7.00;99.90
29571;DHT22;16814;52.118;11.436;2023-04-21T02:39:00;7.00;99.90
29571;DHT22;16814;52.118;11.436;2023-04-21T02:41:27;6.90;99.90
29571;DHT22;16814;52.118;11.436;2023-04-21T02:43:54;6.90;99.90
29571;DHT22;16814;52.118;11.436;2023-04-21T02:46:22;7.00;99.90
29571;DHT22;16814;52.118;11.436;2023-04-21T02:48:48;7.10;99.90
29571;DHT22;16814;52.118;11.436;2023-04-21T02:51:15;7.10;99.90
29571;DHT22;16814;52.118;11.436;2023-04-21T02:53:43;7.20;99.90
29571;DHT22;16814;52.118;11.436;2023-04-21T02:56:11;7.20;99.90
29571;DHT22;16814;52.118;11.436;2023-04-21T02:58:38;7.10;99.90
29571;DHT22;16814;52.118;11.436;2023-04-21T03:01:04;7.20;99.90
29571;DHT22;16814;52.118;11.436;2023-04-21T03:03:32;7.10;99.90
29571;DHT22;16814;52.118;11.436;2023-04-21T03:06:03;7.10;99.90
29571;DHT22;16814;52.118;11.436;2023-04-21T03:08:31;7.10;99.90
29571;DHT22;16814;52.118;11.436;2023-04-21T03:10:58;7.10;99.90
29571;DHT22;16814;52.118;11.436;2023-04-21T03:13:25;7.10;99.90
29571;DHT22;16814;52.118;11.436;2023-04-21T03:15:53;7.10;99.90
29571;DHT22;16814;52.118;11.436;2023-04-21T03:18:19;6.90;99.90
29571;DHT22;16814;52.118;11.436;2023-04-21T03:20:47;6.90;99.90
29571;DHT22;16814;52.118;11.436;2023-04-21T03:23:14;6.90;99.90
29571;DHT22;16814;52.118;11.436;2023-04-21T03:25:44;6.90;99.90
29571;DHT22;16814;52.118;11.436;2023-04-21T03:28:12;6.70;99.90
29571;DHT22;16814;52.118;11.436;2023-04-21T03:30:38;6.60;99.90
29571;DHT22;16814;52.118;11.436;2023-04-21T03:33:04;6.60;99.90
29571;DHT22;16814;52.118;11.436;2023-04-21T03:35:30;6.50;99.90
29571;DHT22;16814;52.118;11.436;2023-04-21T03:37:59;6.50;99.90
29571;DHT22;16814;52.118;11.436;2023-04-21T03:40:26;6.60;99.90
29571;DHT22;16814;52.118;11.436;2023-04-21T03:42:53;6.50;99.90
29571;DHT22;16814;52.118;11.436;2023-04-21T03:45:20;6.40;99.90
29571;DHT22;16814;52.118;11.436;2023-04-21T03:47:53;6.30;99.90
29571;DHT22;16814;52.118;11.436;2023-04-21T03:50:21;6.20;99.90
29571;DHT22;16814;52.118;11.436;2023-04-21T03:52:49;6.20;99.90
29571;DHT22;16814;52.118;11.436;2023-04-21T03:55:18;6.30;99.90
29571;DHT22;16814;52.118;11.436;2023-04-21T03:57:45;6.30;99.90
29571;DHT22;16814;52.118;11.436;2023-04-21T04:00:16;6.20;99.90
29571;DHT22;16814;52.118;11.436;2023-04-21T04:02:43;6.10;99.90
29571;DHT22;16814;52.118;11.436;2023-04-21T04:05:10;6.10;99.90
29571;DHT22;16814;52.118;11.436;2023-04-21T04:07:36;6.10;99.90
29571;DHT22;16814;52.118;11.436;2023-04-21T04:10:03;6.10;99.90
29571;DHT22;16814;52.118;11.436;2023-04-21T04:12:31;6.10;99.90
29571;DHT22;16814;52.118;11.436;2023-04-21T04:14:56;6.20;99.90
29571;DHT22;16814;52.118;11.436;2023-04-21T04:17:23;6.20;99.90
29571;DHT22;16814;52.118;11.436;2023-04-21T04:19:52;6.30;99.90
29571;DHT22;16814;52.118;11.436;2023-04-21T04:22:20;6.20;99.90
29571;DHT22;16814;52.118;11.436;2023-04-21T04:24:46;6.20;99.90
29571;DHT22;16814;52.118;11.436;2023-04-21T04:27:13;6.20;99.90
29571;DHT22;16814;52.118;11.436;2023-04-21T04:29:40;6.10;99.90
29571;DHT22;16814;52.118;11.436;2023-04-21T04:32:08;6.10;99.90
29571;DHT22;16814;52.118;11.436;2023-04-21T04:34:39;6.10;99.90
29571;DHT22;16814;52.118;11.436;2023-04-21T04:37:07;6.10;99.90
29571;DHT22;16814;52.118;11.436;2023-04-21T04:39:42;6.20;99.90
29571;DHT22;16814;52.118;11.436;2023-04-21T04:42:09;6.20;99.90
29571;DHT22;16814;52.118;11.436;2023-04-21T04:44:36;6.30;99.90
29571;DHT22;16814;52.118;11.436;2023-04-21T04:47:05;6.40;99.90
29571;DHT22;16814;52.118;11.436;2023-04-21T04:49:34;6.50;99.90
29571;DHT22;16814;52.118;11.436;2023-04-21T04:52:03;6.40;99.90
29571;DHT22;16814;52.118;11.436;2023-04-21T04:54:28;6.50;99.90
29571;DHT22;16814;52.118;11.436;2023-04-21T04:56:56;6.70;99.90
29571;DHT22;16814;52.118;11.436;2023-04-21T04:59:26;6.80;99.90
29571;DHT22;16814;52.118;11.436;2023-04-21T05:01:52;7.00;99.90
29571;DHT22;16814;52.118;11.436;2023-04-21T05:04:19;7.20;99.90
29571;DHT22;16814;52.118;11.436;2023-04-21T05:06:47;7.40;99.90
29571;DHT22;16814;52.118;11.436;2023-04-21T05:09:18;7.60;99.90
29571;DHT22;16814;52.118;11.436;2023-04-21T05:11:43;7.80;99.90
29571;DHT22;16814;52.118;11.436;2023-04-21T05:14:12;7.80;99.90
29571;DHT22;16814;52.118;11.436;2023-04-21T05:16:39;7.90;99.90
29571;DHT22;16814;52.118;11.436;2023-04-21T05:19:06;8.00;99.90
29571;DHT22;16814;52.118;11.436;2023-04-21T05:21:32;8.10;99.90
29571;DHT22;16814;52.118;11.436;2023-04-21T05:24:00;8.20;99.90
29571;DHT22;16814;52.118;11.436;2023-04-21T05:26:36;8.30;99.90
29571;DHT22;16814;52.118;11.436;2023-04-21T05:29:07;9.50;99.90
29571;DHT22;16814;52.118;11.436;2023-04-21T05:31:35;9.90;99.90
29571;DHT22;16814;52.118;11.436;2023-04-21T05:34:03;10.70;99.90
29571;DHT22;16814;52.118;11.436;2023-04-21T05:36:31;11.40;99.90
29571;DHT22;16814;52.118;11.436;2023-04-21T05:38:58;12.00;99.90
29571;DHT22;16814;52.118;11.436;2023-04-21T05:41:25;12.20;99.90
29571;DHT22;16814;52.118;11.436;2023-04-21T05:43:52;12.00;99.90
29571;DHT22;16814;52.118;11.436;2023-04-21T05:46:20;12.00;99.90
29571;DHT22;16814;52.118;11.436;2023-04-21T05:48:46;12.10;99.90
29571;DHT22;16814;52.118;11.436;2023-04-21T05:51:13;12.30;99.90
29571;DHT22;16814;52.118;11.436;2023-04-21T05:53:43;12.60;99.90
29571;DHT22;16814;52.118;11.436;2023-04-21T05:56:13;13.30;99.90
29571;DHT22;16814;52.118;11.436;2023-04-21T05:58:40;14.10;99.90
29571;DHT22;16814;52.118;11.436;2023-04-21T06:01:09;14.40;99.90
29571;DHT22;16814;52.118;11.436;2023-04-21T06:03:38;14.40;99.90
29571;DHT22;16814;52.118;11.436;2023-04-21T06:06:06;14.80;99.90
29571;DHT22;16814;52.118;11.436;2023-04-21T06:08:34;15.30;99.90
29571;DHT22;16814;52.118;11.436;2023-04-21T06:11:01;15.30;99.90
29571;DHT22;16814;52.118;11.436;2023-04-21T06:13:29;15.10;99.90
29571;DHT22;16814;52.118;11.436;2023-04-21T06:15:56;14.40;99.90
29571;DHT22;16814;52.118;11.436;2023-04-21T06:18:25;14.10;99.90
29571;DHT22;16814;52.118;11.436;2023-04-21T06:20:55;14.10;99.90
29571;DHT22;16814;52.118;11.436;2023-04-21T06:23:23;13.80;99.90
29571;DHT22;16814;52.118;11.436;2023-04-21T06:26:05;13.40;99.90
29571;DHT22;16814;52.118;11.436;2023-04-21T06:28:38;13.90;99.90
29571;DHT22;16814;52.118;11.436;2023-04-21T06:31:05;14.20;99.90
29571;DHT22;16814;52.118;11.436;2023-04-21T06:33:35;14.30;99.90
29571;DHT22;16814;52.118;11.436;2023-04-21T06:36:02;13.90;99.90
29571;DHT22;16814;52.118;11.436;2023-04-21T06:38:29;14.30;99.90
29571;DHT22;16814;52.118;11.436;2023-04-21T06:40:57;14.80;99.90
29571;DHT22;16814;52.118;11.436;2023-04-21T06:43:24;15.10;99.90
29571;DHT22;16814;52.118;11.436;2023-04-21T06:45:53;15.30;99.90
29571;DHT22;16814;52.118;11.436;2023-04-21T06:48:19;15.50;99.90
29571;DHT22;16814;52.118;11.436;2023-04-21T06:50:46;15.60;99.90
29571;DHT22;16814;52.118;11.436;2023-04-21T06:53:17;15.30;99.90
29571;DHT22;16814;52.118;11.436;2023-04-21T06:55:45;14.90;99.90
29571;DHT22;16814;52.118;11.436;2023-04-21T06:58:13;14.50;99.90
29571;DHT22;16814;52.118;11.436;2023-04-21T07:00:41;14.50;99.90
29571;DHT22;16814;52.118;11.436;2023-04-21T07:03:11;14.40;99.90
29571;DHT22;16814;52.118;11.436;2023-04-21T07:05:38;14.10;99.90
29571;DHT22;16814;52.118;11.436;2023-04-21T07:08:04;14.00;99.90
29571;DHT22;16814;52.118;11.436;2023-04-21T07:10:30;13.70;99.90
29571;DHT22;16814;52.118;11.436;2023-04-21T07:12:56;13.70;99.90
29571;DHT22;16814;52.118;11.436;2023-04-21T07:15:23;13.90;99.90
29571;DHT22;16814;52.118;11.436;2023-04-21T07:17:51;14.00;99.90
29571;DHT22;16814;52.118;11.436;2023-04-21T07:20:18;13.90;99.90
29571;DHT22;16814;52.118;11.436;2023-04-21T07:22:43;13.70;99.90
29571;DHT22;16814;52.118;11.436;2023-04-21T07:25:10;13.50;99.90
29571;DHT22;16814;52.118;11.436;2023-04-21T07:27:39;13.70;99.90
29571;DHT22;16814;52.118;11.436;2023-04-21T07:30:05;13.80;99.90
29571;DHT22;16814;52.118;11.436;2023-04-21T07:32:32;13.80;99.90
29571;DHT22;16814;52.118;11.436;2023-04-21T07:35:00;13.60;99.90
29571;DHT22;16814;52.118;11.436;2023-04-21T07:37:28;13.70;99.90
29571;DHT22;16814;52.118;11.436;2023-04-21T07:39:55;13.60;99.90
29571;DHT22;16814;52.118;11.436;2023-04-21T07:42:23;13.60;99.90
29571;DHT22;16814;52.118;11.436;2023-04-21T07:44:53;13.80;99.90
29571;DHT22;16814;52.118;11.436;2023-04-21T07:47:21;14.10;99.90
29571;DHT22;16814;52.118;11.436;2023-04-21T07:49:49;13.80;99.90
29571;DHT22;16814;52.118;11.436;2023-04-21T07:52:14;14.00;99.90
29571;DHT22;16814;52.118;11.436;2023-04-21T07:54:41;14.30;99.90
29571;DHT22;16814;52.118;11.436;2023-04-21T07:57:10;14.60;99.90
29571;DHT22;16814;52.118;11.436;2023-04-21T07:59:36;14.90;99.90
29571;DHT22;16814;52.118;11.436;2023-04-21T08:02:04;14.80;99.90
29571;DHT22;16814;52.118;11.436;2023-04-21T08:04:30;14.80;99.90
29571;DHT22;16814;52.118;11.436;2023-04-21T08:06:58;14.50;99.90
29571;DHT22;16814;52.118;11.436;2023-04-21T08:09:26;14.80;99.90
29571;DHT22;16814;52.118;11.436;2023-04-21T08:11:53;14.80;99.90
29571;DHT22;16814;52.118;11.436;2023-04-21T08:14:24;15.00;99.90
29571;DHT22;16814;52.118;11.436;2023-04-21T08:16:51;15.20;99.90
29571;DHT22;16814;52.118;11.436;2023-04-21T08:19:19;15.40;99.90
29571;DHT22;16814;52.118;11.436;2023-04-21T08:21:48;15.50;99.90
29571;DHT22;16814;52.118;11.436;2023-04-21T08:24:15;15.50;99.90
29571;DHT22;16814;52.118;11.436;2023-04-21T08:26:43;15.50;99.90
29571;DHT22;16814;52.118;11.436;2023-04-21T08:29:10;15.70;99.90
29571;DHT22;16814;52.118;11.436;2023-04-21T08:31:38;15.70;99.90
29571;DHT22;16814;52.118;11.436;2023-04-21T08:34:06;15.50;99.90
29571;DHT22;16814;52.118;11.436;2023-04-21T08:36:33;15.60;99.90
29571;DHT22;16814;52.118;11.436;2023-04-21T08:39:02;16.00;99.90
29571;DHT22;16814;52.118;11.436;2023-04-21T08:41:29;16.00;99.90
29571;DHT22;16814;52.118;11.436;2023-04-21T08:43:56;16.00;99.90
29571;DHT22;16814;52.118;11.436;2023-04-21T08:46:25;16.00;99.90
29571;DHT22;16814;52.118;11.436;2023-04-21T08:48:53;16.30;99.90
29571;DHT22;16814;52.118;11.436;2023-04-21T08:51:23;16.50;99.90
29571;DHT22;16814;52.118;11.436;2023-04-21T08:53:55;16.10;99.90
29571;DHT22;16814;52.118;11.436;2023-04-21T08:56:26;16.30;99.90
29571;DHT22;16814;52.118;11.436;2023-04-21T08:58:54;16.80;99.90
29571;DHT22;16814;52.118;11.436;2023-04-21T09:01:21;16.80;99.90
29571;DHT22;16814;52.118;11.436;2023-04-21T09:03:49;16.80;99.90
29571;DHT22;16814;52.118;11.436;2023-04-21T09:06:15;16.80;99.90
29571;DHT22;16814;52.118;11.436;2023-04-21T09:08:53;17.00;99.90
29571;DHT22;16814;52.118;11.436;2023-04-21T09:11:22;17.10;99.90
29571;DHT22;16814;52.118;11.436;2023-04-21T09:13:48;17.00;99.90
29571;DHT22;16814;52.118;11.436;2023-04-21T09:16:19;17.40;99.90
29571;DHT22;16814;52.118;11.436;2023-04-21T09:18:46;17.60;99.90
29571;DHT22;16814;52.118;11.436;2023-04-21T09:21:14;17.40;99.90
29571;DHT22;16814;52.118;11.436;2023-04-21T09:23:50;17.50;99.90
29571;DHT22;16814;52.118;11.436;2023-04-21T09:26:18;17.70;99.90
29571;DHT22;16814;52.118;11.436;2023-04-21T09:28:48;17.90;99.90
29571;DHT22;16814;52.118;11.436;2023-04-21T09:31:18;18.00;99.90
29571;DHT22;16814;52.118;11.436;2023-04-21T09:33:53;18.00;99.90
29571;DHT22;16814;52.118;11.436;2023-04-21T09:36:27;18.00;99.90
29571;DHT22;16814;52.118;11.436;2023-04-21T09:38:57;18.00;99.90
29571;DHT22;16814;52.118;11.436;2023-04-21T09:41:25;18.10;99.90
29571;DHT22;16814;52.118;11.436;2023-04-21T09:43:54;18.00;99.90
29571;DHT22;16814;52.118;11.436;2023-04-21T09:46:20;18.00;99.90
29571;DHT22;16814;52.118;11.436;2023-04-21T09:48:48;18.40;99.90
29571;DHT22;16814;52.118;11.436;2023-04-21T09:51:16;18.30;99.90
29571;DHT22;16814;52.118;11.436;2023-04-21T09:54:00;18.50;99.90
29571;DHT22;16814;52.118;11.436;2023-04-21T09:56:39;18.50;99.90
29571;DHT22;16814;52.118;11.436;2023-04-21T09:59:12;18.60;99.90
29571;DHT22;16814;52.118;11.436;2023-04-21T10:01:49;18.70;99.90
29571;DHT22;16814;52.118;11.436;2023-04-21T10:04:17;18.70;99.90
29571;DHT22;16814;52.118;11.436;2023-04-21T10:06:45;18.90;99.90
29571;DHT22;16814;52.118;11.436;2023-04-21T10:09:13;18.90;99.90
29571;DHT22;16814;52.118;11.436;2023-04-21T10:11:41;18.90;99.90
29571;DHT22;16814;52.118;11.436;2023-04-21T10:14:12;18.90;99.90
29571;DHT22;16814;52.118;11.436;2023-04-21T10:16:40;18.60;99.90
29571;DHT22;16814;52.118;11.436;2023-04-21T10:19:26;18.60;99.90
29571;DHT22;16814;52.118;11.436;2023-04-21T10:21:56;18.70;99.90
29571;DHT22;16814;52.118;11.436;2023-04-21T10:24:23;18.70;99.90
29571;DHT22;16814;52.118;11.436;2023-04-21T10:26:55;18.80;99.90
29571;DHT22;16814;52.118;11.436;2023-04-21T10:29:31;18.80;99.90
29571;DHT22;16814;52.118;11.436;2023-04-21T10:31:58;18.80;99.90
29571;DHT22;16814;52.118;11.436;2023-04-21T10:34:40;19.00;99.90
29571;DHT22;16814;52.118;11.436;2023-04-21T10:37:10;19.20;99.90
29571;DHT22;16814;52.118;11.436;2023-04-21T10:40:01;19.10;98.00
29571;DHT22;16814;52.118;11.436;2023-04-21T10:42:33;19.30;99.70
29571;DHT22;16814;52.118;11.436;2023-04-21T10:45:07;19.20;99.00
29571;DHT22;16814;52.118;11.436;2023-04-21T10:47:42;19.50;98.80
29571;DHT22;16814;52.118;11.436;2023-04-21T10:50:23;19.70;96.20
29571;DHT22;16814;52.118;11.436;2023-04-21T10:53:14;19.90;93.70
29571;DHT22;16814;52.118;11.436;2023-04-21T10:55:51;19.60;92.30
29571;DHT22;16814;52.118;11.436;2023-04-21T10:58:18;19.70;92.70
29571;DHT22;16814;52.118;11.436;2023-04-21T11:00:55;19.90;93.10
29571;DHT22;16814;52.118;11.436;2023-04-21T11:03:24;19.80;90.90
29571;DHT22;16814;52.118;11.436;2023-04-21T11:06:08;19.60;90.70
29571;DHT22;16814;52.118;11.436;2023-04-21T11:08:55;19.20;90.10
29571;DHT22;16814;52.118;11.436;2023-04-21T11:11:22;19.30;89.70
29571;DHT22;16814;52.118;11.436;2023-04-21T11:13:51;19.50;89.50
29571;DHT22;16814;52.118;11.436;2023-04-21T11:16:20;19.60;89.90
29571;DHT22;16814;52.118;11.436;2023-04-21T11:18:47;19.80;86.50
29571;DHT22;16814;52.118;11.436;2023-04-21T11:21:19;19.70;85.70
29571;DHT22;16814;52.118;11.436;2023-04-21T11:23:56;19.40;84.20
29571;DHT22;16814;52.118;11.436;2023-04-21T11:26:33;19.60;90.00
29571;DHT22;16814;52.118;11.436;2023-04-21T11:29:01;19.50;86.30
29571;DHT22;16814;52.118;11.436;2023-04-21T11:31:32;19.60;84.80
29571;DHT22;16814;52.118;11.436;2023-04-21T11:34:01;19.60;90.00
29571;DHT22;16814;52.118;11.436;2023-04-21T11:36:40;19.50;85.30
29571;DHT22;16814;52.118;11.436;2023-04-21T11:39:12;19.80;86.00
29571;DHT22;16814;52.118;11.436;2023-04-21T11:41:45;20.00;83.90
29571;DHT22;16814;52.118;11.436;2023-04-21T11:44:29;20.00;79.90
29571;DHT22;16814;52.118;11.436;2023-04-21T11:46:58;20.00;80.80
29571;DHT22;16814;52.118;11.436;2023-04-21T11:49:25;20.00;80.80
29571;DHT22;16814;52.118;11.436;2023-04-21T11:51:56;19.90;82.60
29571;DHT22;16814;52.118;11.436;2023-04-21T11:54:22;19.80;82.70
29571;DHT22;16814;52.118;11.436;2023-04-21T11:56:52;19.70;84.00
29571;DHT22;16814;52.118;11.436;2023-04-21T11:59:21;19.60;81.00
29571;DHT22;16814;52.118;11.436;2023-04-21T12:02:20;19.50;82.70
29571;DHT22;16814;52.118;11.436;2023-04-21T12:05:11;19.20;81.00
29571;DHT22;16814;52.118;11.436;2023-04-21T12:07:40;19.10;85.00
29571;DHT22;16814;52.118;11.436;2023-04-21T12:10:20;19.30;83.40
29571;DHT22;16814;52.118;11.436;2023-04-21T12:12:50;19.40;83.60
29571;DHT22;16814;52.118;11.436;2023-04-21T12:15:20;19.40;83.20
29571;DHT22;16814;52.118;11.436;2023-04-21T12:17:53;19.50;82.70
29571;DHT22;16814;52.118;11.436;2023-04-21T12:20:21;19.50;79.40
29571;DHT22;16814;52.118;11.436;2023-04-21T12:22:48;19.40;81.00
29571;DHT22;16814;52.118;11.436;2023-04-21T12:25:16;19.40;81.80
29571;DHT22;16814;52.118;11.436;2023-04-21T12:27:56;19.40;83.80
29571;DHT22;16814;52.118;11.436;2023-04-21T12:30:28;19.40;78.70
29571;DHT22;16814;52.118;11.436;2023-04-21T12:32:54;19.50;79.40
29571;DHT22;16814;52.118;11.436;2023-04-21T12:35:24;19.30;77.30
29571;DHT22;16814;52.118;11.436;2023-04-21T12:37:51;19.20;79.80
29571;DHT22;16814;52.118;11.436;2023-04-21T12:40:20;19.30;80.00
29571;DHT22;16814;52.118;11.436;2023-04-21T12:42:48;19.30;79.40
29571;DHT22;16814;52.118;11.436;2023-04-21T12:45:16;19.40;80.40
29571;DHT22;16814;52.118;11.436;2023-04-21T12:47:41;19.30;77.80
29571;DHT22;16814;52.118;11.436;2023-04-21T12:50:08;19.30;79.50
29571;DHT22;16814;52.118;11.436;2023-04-21T12:52:39;19.20;78.70
29571;DHT22;16814;52.118;11.436;2023-04-21T12:55:11;19.30;78.40
29571;DHT22;16814;52.118;11.436;2023-04-21T12:57:40;19.50;80.10
29571;DHT22;16814;52.118;11.436;2023-04-21T13:00:09;19.60;79.10
29571;DHT22;16814;52.118;11.436;2023-04-21T13:02:38;19.50;79.40
29571;DHT22;16814;52.118;11.436;2023-04-21T13:05:05;19.50;79.90
29571;DHT22;16814;52.118;11.436;2023-04-21T13:07:35;19.60;81.40
29571;DHT22;16814;52.118;11.436;2023-04-21T13:10:03;19.70;78.60
29571;DHT22;16814;52.118;11.436;2023-04-21T13:12:33;19.70;80.40
29571;DHT22;16814;52.118;11.436;2023-04-21T13:14:59;19.50;75.70
29571;DHT22;16814;52.118;11.436;2023-04-21T13:17:30;19.30;76.20
29571;DHT22;16814;52.118;11.436;2023-04-21T13:19:56;19.10;76.60
29571;DHT22;16814;52.118;11.436;2023-04-21T13:22:24;19.20;77.80
29571;DHT22;16814;52.118;11.436;2023-04-21T13:24:51;19.30;79.70
29571;DHT22;16814;52.118;11.436;2023-04-21T13:27:21;19.50;80.60
29571;DHT22;16814;52.118;11.436;2023-04-21T13:29:48;19.50;78.70
29571;DHT22;16814;52.118;11.436;2023-04-21T13:32:16;19.60;76.60
29571;DHT22;16814;52.118;11.436;2023-04-21T13:34:43;19.60;75.70
29571;DHT22;16814;52.118;11.436;2023-04-21T13:37:09;19.50;75.60
29571;DHT22;16814;52.118;11.436;2023-04-21T13:39:38;19.40;77.90
29571;DHT22;16814;52.118;11.436;2023-04-21T13:42:06;19.50;79.60
29571;DHT22;16814;52.118;11.436;2023-04-21T13:44:33;19.60;79.50
29571;DHT22;16814;52.118;11.436;2023-04-21T13:47:00;19.60;78.10
29571;DHT22;16814;52.118;11.436;2023-04-21T13:49:27;19.50;77.10
29571;DHT22;16814;52.118;11.436;2023-04-21T13:51:54;19.50;77.20
29571;DHT22;16814;52.118;11.436;2023-04-21T13:54:19;19.50;77.30
29571;DHT22;16814;52.118;11.436;2023-04-21T13:56:51;19.40;80.40
29571;DHT22;16814;52.118;11.436;2023-04-21T13:59:18;19.40;78.60
29571;DHT22;16814;52.118;11.436;2023-04-21T14:01:48;19.30;78.30
29571;DHT22;16814;52.118;11.436;2023-04-21T14:04:14;19.40;76.70
29571;DHT22;16814;52.118;11.436;2023-04-21T14:06:42;19.40;77.20
29571;DHT22;16814;52.118;11.436;2023-04-21T14:09:14;19.40;78.10
29571;DHT22;16814;52.118;11.436;2023-04-21T14:11:43;19.40;77.50
29571;DHT22;16814;52.118;11.436;2023-04-21T14:14:11;19.40;77.00
29571;DHT22;16814;52.118;11.436;2023-04-21T14:16:37;19.20;78.00
29571;DHT22;16814;52.118;11.436;2023-04-21T14:19:06;19.20;75.30
29571;DHT22;16814;52.118;11.436;2023-04-21T14:21:35;19.30;76.20
29571;DHT22;16814;52.118;11.436;2023-04-21T14:24:01;19.30;77.70
29571;DHT22;16814;52.118;11.436;2023-04-21T14:26:26;19.20;78.20
29571;DHT22;16814;52.118;11.436;2023-04-21T14:28:54;19.40;79.70
29571;DHT22;16814;52.118;11.436;2023-04-21T14:31:21;19.40;75.60
29571;DHT22;16814;52.118;11.436;2023-04-21T14:33:48;19.40;76.20
29571;DHT22;16814;52.118;11.436;2023-04-21T14:36:17;19.30;75.50
29571;DHT22;16814;52.118;11.436;2023-04-21T14:38:44;19.30;76.60
29571;DHT22;16814;52.118;11.436;2023-04-21T14:41:12;19.30;76.50
29571;DHT22;16814;52.118;11.436;2023-04-21T14:43:40;19.30;78.50
29571;DHT22;16814;52.118;11.436;2023-04-21T14:46:06;19.30;79.80
29571;DHT22;16814;52.118;11.436;2023-04-21T14:48:33;19.30;78.50
29571;DHT22;16814;52.118;11.436;2023-04-21T14:51:00;19.30;78.60
29571;DHT22;16814;52.118;11.436;2023-04-21T14:53:41;19.40;80.30
29571;DHT22;16814;52.118;11.436;2023-04-21T14:56:08;19.50;81.40
29571;DHT22;16814;52.118;11.436;2023-04-21T14:58:35;19.50;78.00
29571;DHT22;16814;52.118;11.436;2023-04-21T15:01:00;19.40;78.00
29571;DHT22;16814;52.118;11.436;2023-04-21T15:03:27;19.40;79.20
29571;DHT22;16814;52.118;11.436;2023-04-21T15:05:52;19.30;78.50
29571;DHT22;16814;52.118;11.436;2023-04-21T15:08:19;19.20;80.90
29571;DHT22;16814;52.118;11.436;2023-04-21T15:10:46;19.20;79.90
29571;DHT22;16814;52.118;11.436;2023-04-21T15:13:13;19.30;77.90
29571;DHT22;16814;52.118;11.436;2023-04-21T15:15:39;19.20;78.00
29571;DHT22;16814;52.118;11.436;2023-04-21T15:18:07;19.10;78.20
29571;DHT22;16814;52.118;11.436;2023-04-21T15:20:34;19.10;77.80
29571;DHT22;16814;52.118;11.436;2023-04-21T15:23:01;19.20;80.00
29571;DHT22;16814;52.118;11.436;2023-04-21T15:25:29;19.10;78.30
29571;DHT22;16814;52.118;11.436;2023-04-21T15:27:55;19.00;77.80
29571;DHT22;16814;52.118;11.436;2023-04-21T15:30:27;19.00;77.50
29571;DHT22;16814;52.118;11.436;2023-04-21T15:32:56;18.90;79.60